createdAt,value
2017-09-06T00:00:03.572Z,3.10
2017-09-06T00:02:33.021Z,2.40
2017-09-06T00:05:02.480Z,2.00
2017-09-06T00:07:32.060Z,2.50
2017-09-06T00:10:01.527Z,2.90
2017-09-06T00:12:31.154Z,3.00
2017-09-06T00:15:00.619Z,3.27
2017-09-06T00:17:30.069Z,2.97
2017-09-06T00:19:59.564Z,3.30
2017-09-06T00:22:29.052Z,3.10
2017-09-06T00:24:58.503Z,3.00
2017-09-06T00:27:27.978Z,3.50
2017-09-06T00:29:57.435Z,3.17
2017-09-06T00:32:26.908Z,4.13
2017-09-06T00:34:56.359Z,3.50
2017-09-06T00:37:25.828Z,3.60
2017-09-06T00:39:55.296Z,4.20
2017-09-06T00:42:24.402Z,3.93
2017-09-06T00:44:53.867Z,4.00
2017-09-06T00:47:23.319Z,4.30
2017-09-06T00:49:52.782Z,3.80
2017-09-06T00:52:22.236Z,3.93
2017-09-06T00:54:51.698Z,3.93
2017-09-06T00:57:20.803Z,3.93
2017-09-06T00:59:49.912Z,4.10
2017-09-06T01:02:19.380Z,4.20
2017-09-06T01:04:48.917Z,4.27
2017-09-06T01:07:18.370Z,4.70
2017-09-06T01:09:47.947Z,4.90
2017-09-06T01:12:17.441Z,5.50
2017-09-06T01:14:46.892Z,5.63
2017-09-06T01:17:16.350Z,5.07
2017-09-06T01:19:45.859Z,5.63
2017-09-06T01:22:14.976Z,4.50
2017-09-06T01:24:44.071Z,4.37
2017-09-06T01:27:13.602Z,4.93
2017-09-06T01:29:43.050Z,4.93
2017-09-06T01:32:12.551Z,4.90
2017-09-06T01:34:42.018Z,4.73
2017-09-06T01:37:11.482Z,5.13
2017-09-06T01:39:40.946Z,5.77
2017-09-06T01:42:10.407Z,5.30
2017-09-06T01:44:39.911Z,5.40
2017-09-06T01:47:09.394Z,5.00
2017-09-06T01:49:38.909Z,5.50
2017-09-06T01:52:08.361Z,5.43
2017-09-06T01:54:37.839Z,5.03
2017-09-06T01:57:07.287Z,5.60
2017-09-06T01:59:36.747Z,5.47
2017-09-06T02:02:06.227Z,4.80
2017-09-06T02:04:35.703Z,5.50
2017-09-06T02:07:04.798Z,5.30
2017-09-06T02:09:34.246Z,5.40
2017-09-06T02:12:03.727Z,5.87
2017-09-06T02:14:33.178Z,5.00
2017-09-06T02:17:02.642Z,5.50
2017-09-06T02:19:32.089Z,6.00
2017-09-06T02:22:01.598Z,5.40
2017-09-06T02:24:31.052Z,5.50
2017-09-06T02:27:00.500Z,5.13
2017-09-06T02:29:29.967Z,5.50
2017-09-06T02:31:59.422Z,5.17
2017-09-06T02:34:28.906Z,5.90
2017-09-06T02:36:58.368Z,5.40
2017-09-06T02:39:27.857Z,5.37
2017-09-06T02:41:57.294Z,6.10
2017-09-06T02:44:26.923Z,5.93
2017-09-06T02:46:56.446Z,6.83
2017-09-06T02:49:25.938Z,6.87
2017-09-06T02:51:55.378Z,6.30
2017-09-06T02:54:24.483Z,7.53
2017-09-06T02:56:53.648Z,6.97
2017-09-06T02:59:23.094Z,7.33
2017-09-06T03:01:52.599Z,7.20
2017-09-06T03:04:22.048Z,6.77
2017-09-06T03:06:51.542Z,6.57
2017-09-06T03:09:21.271Z,6.47
2017-09-06T03:11:50.739Z,6.10
2017-09-06T03:14:20.183Z,5.73
2017-09-06T03:16:49.626Z,5.33
2017-09-06T03:19:18.980Z,6.50
2017-09-06T03:21:48.422Z,5.00
2017-09-06T03:24:17.894Z,5.40
2017-09-06T03:26:47.353Z,4.33
2017-09-06T03:29:16.823Z,4.87
2017-09-06T03:31:46.319Z,4.97
2017-09-06T03:34:15.758Z,4.50
2017-09-06T03:36:45.227Z,5.20
2017-09-06T03:39:14.687Z,5.43
2017-09-06T03:41:44.164Z,5.47
2017-09-06T03:44:13.614Z,5.00
2017-09-06T03:46:43.071Z,5.57
2017-09-06T03:49:12.515Z,5.17
2017-09-06T03:51:41.975Z,4.60
2017-09-06T03:54:11.483Z,4.70
2017-09-06T03:56:40.939Z,5.30
2017-09-06T03:59:10.440Z,4.37
2017-09-06T04:01:39.907Z,4.97
2017-09-06T04:04:09.350Z,4.87
2017-09-06T04:06:38.826Z,4.63
2017-09-06T04:09:08.303Z,5.10
2017-09-06T04:11:37.807Z,4.80
2017-09-06T04:14:07.298Z,5.33
2017-09-06T04:16:36.765Z,4.67
2017-09-06T04:19:06.213Z,4.33
2017-09-06T04:21:35.669Z,5.37
2017-09-06T04:24:05.138Z,5.27
2017-09-06T04:26:34.946Z,5.50
2017-09-06T04:29:04.407Z,4.80
2017-09-06T04:31:33.858Z,5.00
2017-09-06T04:34:03.335Z,5.37
2017-09-06T04:36:32.774Z,4.80
2017-09-06T04:39:02.235Z,4.93
2017-09-06T04:41:31.687Z,5.10
2017-09-06T04:44:01.188Z,5.30
2017-09-06T04:46:30.656Z,4.50
2017-09-06T04:49:00.095Z,5.07
2017-09-06T04:51:29.564Z,4.30
2017-09-06T04:53:59.313Z,4.20
2017-09-06T04:56:28.775Z,4.57
2017-09-06T04:58:58.303Z,5.10
2017-09-06T05:01:27.751Z,4.50
2017-09-06T05:03:57.218Z,4.57
2017-09-06T05:06:26.658Z,5.27
2017-09-06T05:08:56.120Z,5.27
2017-09-06T05:11:25.582Z,5.53
2017-09-06T05:13:55.110Z,5.20
2017-09-06T05:16:24.560Z,5.70
2017-09-06T05:18:54.027Z,5.67
2017-09-06T05:21:23.480Z,5.27
2017-09-06T05:23:52.926Z,4.90
2017-09-06T05:26:22.391Z,4.77
2017-09-06T05:28:51.834Z,4.30
2017-09-06T05:31:21.295Z,4.43
2017-09-06T05:33:50.738Z,4.20
2017-09-06T05:36:20.232Z,3.73
2017-09-06T05:38:49.691Z,4.60
2017-09-06T05:41:19.201Z,4.10
2017-09-06T05:43:48.658Z,4.47
2017-09-06T05:46:18.125Z,4.20
2017-09-06T05:48:47.566Z,4.20
2017-09-06T05:51:17.136Z,4.20
2017-09-06T05:53:46.578Z,4.13
2017-09-06T05:56:16.035Z,3.67
2017-09-06T05:58:45.291Z,3.57
2017-09-06T06:01:14.770Z,3.90
2017-09-06T06:03:44.242Z,3.87
2017-09-06T06:06:13.726Z,3.93
2017-09-06T06:08:43.171Z,4.40
2017-09-06T06:11:12.631Z,4.10
2017-09-06T06:13:42.071Z,3.83
2017-09-06T06:16:11.534Z,3.80
2017-09-06T06:18:40.982Z,3.80
2017-09-06T06:21:10.464Z,3.73
2017-09-06T06:23:39.906Z,3.00
2017-09-06T06:26:09.427Z,3.10
2017-09-06T06:28:38.867Z,3.17
2017-09-06T06:31:08.319Z,2.80
2017-09-06T06:33:37.762Z,2.20
2017-09-06T06:36:07.219Z,2.00
2017-09-06T06:38:36.700Z,2.50
2017-09-06T06:41:05.184Z,2.13
2017-09-06T06:43:33.641Z,2.67
2017-09-06T06:46:02.134Z,1.90
2017-09-06T06:48:30.603Z,2.87
2017-09-06T06:50:59.079Z,1.90
2017-09-06T06:53:27.534Z,2.10
2017-09-06T06:55:56.011Z,2.47
2017-09-06T06:58:24.506Z,1.97
2017-09-06T07:00:52.955Z,2.10
2017-09-06T07:03:21.479Z,2.30
2017-09-06T07:05:49.935Z,2.00
2017-09-06T07:08:18.472Z,2.07
2017-09-06T07:10:46.919Z,2.30
2017-09-06T07:13:15.398Z,2.40
2017-09-06T07:15:43.988Z,2.23
2017-09-06T07:18:12.443Z,1.83
2017-09-06T07:20:40.943Z,2.93
2017-09-06T07:23:09.411Z,2.10
2017-09-06T07:25:37.915Z,2.70
2017-09-06T07:28:06.422Z,2.57
2017-09-06T07:30:34.891Z,1.87
2017-09-06T07:33:03.362Z,1.93
2017-09-06T07:35:31.816Z,2.10
2017-09-06T07:38:00.295Z,2.10
2017-09-06T07:40:28.743Z,1.57
2017-09-06T07:42:57.196Z,1.67
2017-09-06T07:45:25.671Z,1.50
2017-09-06T07:47:54.179Z,1.50
2017-09-06T07:50:22.658Z,1.60
2017-09-06T07:52:51.119Z,1.80
2017-09-06T07:55:19.615Z,1.73
2017-09-06T07:57:48.063Z,1.40
2017-09-06T08:00:16.620Z,1.57
2017-09-06T08:02:45.091Z,1.57
2017-09-06T08:05:13.559Z,1.60
2017-09-06T08:07:47.555Z,1.53
2017-09-06T08:10:16.031Z,1.50
2017-09-06T08:12:44.511Z,1.70
2017-09-06T08:15:12.998Z,1.40
2017-09-06T08:17:41.459Z,1.90
2017-09-06T08:20:09.911Z,1.43
2017-09-06T08:22:38.400Z,1.60
2017-09-06T08:25:06.871Z,1.53
2017-09-06T08:27:35.367Z,1.73
2017-09-06T08:30:04.583Z,1.40
2017-09-06T08:32:33.147Z,2.10
2017-09-06T08:35:01.619Z,1.70
2017-09-06T08:37:30.080Z,1.00
2017-09-06T08:39:58.551Z,1.40
2017-09-06T08:42:27.216Z,1.77
2017-09-06T08:44:55.703Z,1.60
2017-09-06T08:47:24.168Z,1.70
2017-09-06T08:49:52.683Z,1.50
2017-09-06T08:52:21.206Z,1.20
2017-09-06T08:54:49.671Z,1.63
2017-09-06T08:57:18.156Z,1.50
2017-09-06T08:59:46.628Z,1.20
2017-09-06T09:02:15.103Z,1.50
2017-09-06T09:04:43.636Z,1.23
2017-09-06T09:07:12.096Z,1.80
2017-09-06T09:09:40.567Z,1.40
2017-09-06T09:12:09.094Z,1.30
2017-09-06T09:14:37.657Z,1.17
2017-09-06T09:17:06.111Z,1.30
2017-09-06T09:19:34.592Z,1.37
2017-09-06T09:22:03.147Z,1.80
2017-09-06T09:24:31.616Z,1.40
2017-09-06T09:27:00.076Z,1.20
2017-09-06T09:29:28.567Z,1.30
2017-09-06T09:31:57.038Z,1.50
2017-09-06T09:34:25.508Z,1.53
2017-09-06T09:36:53.637Z,1.47
2017-09-06T09:39:22.111Z,1.10
2017-09-06T09:41:50.585Z,1.73
2017-09-06T09:44:19.201Z,1.37
2017-09-06T09:46:47.707Z,1.20
2017-09-06T09:49:16.251Z,1.20
2017-09-06T09:51:44.736Z,1.13
2017-09-06T09:54:13.269Z,1.23
2017-09-06T09:56:41.836Z,1.47
2017-09-06T09:59:10.292Z,1.40
2017-09-06T10:01:38.791Z,1.43
2017-09-06T10:04:07.263Z,1.30
2017-09-06T10:06:35.729Z,1.10
2017-09-06T10:09:03.325Z,1.43
2017-09-06T10:11:31.824Z,1.00
2017-09-06T10:14:00.303Z,1.20
2017-09-06T10:16:28.776Z,1.00
2017-09-06T10:18:57.248Z,1.07
2017-09-06T10:21:25.392Z,0.90
2017-09-06T10:23:53.853Z,1.17
2017-09-06T10:26:22.324Z,0.97
2017-09-06T10:28:50.787Z,0.93
2017-09-06T10:31:19.251Z,1.10
2017-09-06T10:33:47.727Z,1.00
2017-09-06T10:36:16.211Z,0.90
2017-09-06T10:38:44.715Z,0.80
2017-09-06T10:41:13.947Z,1.17
2017-09-06T10:43:43.198Z,1.10
2017-09-06T10:46:11.690Z,1.10
2017-09-06T10:48:40.154Z,1.40
2017-09-06T10:51:08.619Z,1.20
2017-09-06T10:53:37.076Z,0.93
2017-09-06T10:56:05.601Z,1.03
2017-09-06T10:58:34.074Z,1.00
2017-09-06T11:01:02.559Z,1.13
2017-09-06T11:03:31.016Z,0.87
2017-09-06T11:05:59.503Z,1.10
2017-09-06T11:08:28.005Z,1.00
2017-09-06T11:10:56.456Z,1.00
2017-09-06T11:13:25.367Z,1.00
2017-09-06T11:15:53.828Z,1.07
2017-09-06T11:18:22.308Z,1.17
2017-09-06T11:20:50.767Z,0.83
2017-09-06T11:23:19.228Z,0.80
2017-09-06T11:25:47.725Z,0.83
2017-09-06T11:28:16.203Z,1.20
2017-09-06T11:30:44.683Z,0.93
2017-09-06T11:33:13.164Z,1.20
2017-09-06T11:35:42.310Z,1.10
2017-09-06T11:38:10.772Z,1.50
2017-09-06T11:40:39.240Z,1.27
2017-09-06T11:43:07.775Z,1.53
2017-09-06T11:45:36.223Z,1.20
2017-09-06T11:48:04.719Z,1.73
2017-09-06T11:50:32.988Z,1.60
2017-09-06T11:53:01.486Z,1.90
2017-09-06T11:55:29.947Z,2.03
2017-09-06T11:57:59.197Z,1.10
2017-09-06T12:00:27.660Z,1.40
2017-09-06T12:02:56.116Z,1.40
2017-09-06T12:05:24.623Z,1.17
2017-09-06T12:07:53.206Z,1.10
2017-09-06T12:10:21.492Z,1.20
2017-09-06T12:12:50.792Z,0.90
2017-09-06T12:15:19.327Z,1.17
2017-09-06T12:17:47.791Z,0.60
2017-09-06T12:20:16.250Z,0.70
2017-09-06T12:22:44.810Z,0.77
2017-09-06T12:25:13.454Z,0.77
2017-09-06T12:27:41.929Z,0.93
2017-09-06T12:30:10.383Z,0.77
2017-09-06T12:32:38.856Z,0.60
2017-09-06T12:35:07.329Z,1.30
2017-09-06T12:37:35.809Z,0.77
2017-09-06T12:40:03.923Z,0.70
2017-09-06T12:42:32.396Z,0.80
2017-09-06T12:45:00.851Z,0.90
2017-09-06T12:47:29.306Z,1.00
2017-09-06T12:49:57.767Z,1.00
2017-09-06T12:52:26.223Z,0.70
2017-09-06T12:54:54.724Z,0.90
2017-09-06T12:57:23.303Z,0.70
2017-09-06T12:59:51.756Z,0.83
2017-09-06T13:02:20.226Z,0.80
2017-09-06T13:04:48.679Z,0.90
2017-09-06T13:07:17.946Z,0.80
2017-09-06T13:09:46.408Z,1.33
2017-09-06T13:12:14.873Z,0.80
2017-09-06T13:14:44.095Z,1.08
2017-09-06T13:17:12.599Z,0.70
2017-09-06T13:19:41.063Z,0.90
2017-09-06T13:22:09.535Z,0.90
2017-09-06T13:24:38.013Z,1.00
2017-09-06T13:27:06.477Z,0.90
2017-09-06T13:29:36.051Z,0.80
2017-09-06T13:32:04.540Z,0.97
2017-09-06T13:34:33.276Z,0.90
2017-09-06T13:37:02.007Z,0.90
2017-09-06T13:39:30.729Z,0.80
2017-09-06T13:41:59.465Z,1.20
2017-09-06T13:44:27.965Z,0.80
2017-09-06T13:46:56.723Z,0.80
2017-09-06T13:49:25.188Z,1.20
2017-09-06T13:51:54.042Z,0.80
2017-09-06T13:54:22.772Z,1.10
2017-09-06T13:56:51.535Z,0.90
2017-09-06T13:59:20.256Z,0.80
2017-09-06T14:01:48.840Z,1.20
2017-09-06T14:04:17.613Z,1.00
2017-09-06T14:06:47.798Z,1.20
2017-09-06T14:09:16.634Z,1.10
2017-09-06T14:11:45.382Z,1.00
2017-09-06T14:14:13.851Z,1.20
2017-09-06T14:16:42.365Z,1.13
2017-09-06T14:19:10.849Z,1.10
2017-09-06T14:21:39.306Z,1.10
2017-09-06T14:24:07.941Z,1.30
2017-09-06T14:26:36.984Z,1.58
2017-09-06T14:29:05.720Z,1.20
2017-09-06T14:31:34.314Z,1.40
2017-09-06T14:34:02.767Z,1.50
2017-09-06T14:36:31.528Z,1.70
2017-09-06T14:39:00.065Z,2.00
2017-09-06T14:41:28.547Z,1.40
2017-09-06T14:43:57.307Z,1.50
2017-09-06T14:46:25.788Z,1.50
2017-09-06T14:48:54.515Z,1.27
2017-09-06T14:51:23.290Z,1.10
2017-09-06T14:53:51.920Z,1.60
2017-09-06T14:56:20.383Z,1.43
2017-09-06T14:58:49.146Z,1.60
2017-09-06T15:01:17.431Z,2.00
2017-09-06T15:03:46.205Z,1.30
2017-09-06T15:06:14.976Z,1.60
2017-09-06T15:08:43.492Z,2.27
2017-09-06T15:11:12.223Z,1.80
2017-09-06T15:13:40.694Z,1.90
2017-09-06T15:16:10.177Z,2.20
2017-09-06T15:18:38.643Z,2.30
2017-09-06T15:21:07.142Z,1.97
2017-09-06T15:23:35.590Z,2.43
2017-09-06T15:26:04.359Z,2.12
2017-09-06T15:28:33.047Z,1.90
2017-09-06T15:31:01.608Z,2.00
2017-09-06T15:33:30.152Z,2.40
2017-09-06T15:35:58.647Z,2.03
2017-09-06T15:38:27.379Z,2.10
2017-09-06T15:40:55.947Z,2.08
2017-09-06T15:43:24.427Z,2.63
2017-09-06T15:45:53.164Z,2.20
2017-09-06T15:48:22.704Z,2.03
2017-09-06T15:50:51.720Z,2.10
2017-09-06T15:53:20.207Z,2.20
2017-09-06T15:55:49.012Z,2.00
2017-09-06T15:58:17.779Z,2.30
2017-09-06T16:00:46.528Z,2.28
2017-09-06T16:03:14.989Z,2.23
2017-09-06T16:05:44.244Z,2.30
2017-09-06T16:08:12.716Z,2.27
2017-09-06T16:10:41.180Z,2.57
2017-09-06T16:13:09.658Z,2.10
2017-09-06T16:15:38.363Z,1.90
2017-09-06T16:18:07.112Z,2.50
2017-09-06T16:20:35.992Z,2.28
2017-09-06T16:23:05.257Z,2.37
2017-09-06T16:25:34.000Z,2.40
2017-09-06T16:28:03.248Z,2.70
2017-09-06T16:30:31.711Z,2.33
2017-09-06T16:33:00.456Z,2.00
2017-09-06T16:35:29.251Z,2.80
2017-09-06T16:37:57.966Z,2.40
2017-09-06T16:40:26.436Z,2.60
2017-09-06T16:42:54.906Z,2.30
2017-09-06T16:45:24.162Z,2.70
2017-09-06T16:47:52.896Z,2.95
2017-09-06T16:50:21.444Z,2.50
2017-09-06T16:52:50.238Z,2.40
2017-09-06T16:55:18.989Z,2.10
2017-09-06T16:57:47.422Z,1.90
2017-09-06T17:00:16.139Z,2.50
2017-09-06T17:02:44.608Z,2.63
2017-09-06T17:05:13.212Z,2.57
2017-09-06T17:07:41.776Z,2.90
2017-09-06T17:10:11.387Z,2.10
2017-09-06T17:12:41.117Z,3.00
2017-09-06T17:15:10.563Z,3.30
2017-09-06T17:17:40.025Z,2.97
2017-09-06T17:20:09.495Z,2.50
2017-09-06T17:22:38.963Z,3.33
2017-09-06T17:25:08.452Z,2.17
2017-09-06T17:27:37.898Z,2.62
2017-09-06T17:30:07.371Z,2.10
2017-09-06T17:32:36.855Z,3.00
2017-09-06T17:35:06.491Z,2.57
2017-09-06T17:37:35.983Z,2.67
2017-09-06T17:40:05.493Z,2.57
2017-09-06T17:42:35.027Z,2.10
2017-09-06T17:45:04.112Z,2.13
2017-09-06T17:47:33.784Z,2.57
2017-09-06T17:50:03.289Z,2.40
2017-09-06T17:52:32.807Z,3.13
2017-09-06T17:55:02.287Z,2.70
2017-09-06T17:57:31.867Z,3.00
2017-09-06T18:00:01.424Z,2.50
2017-09-06T18:02:30.963Z,2.50
2017-09-06T18:05:00.452Z,2.60
2017-09-06T18:07:29.979Z,2.80
2017-09-06T18:09:59.655Z,2.93
2017-09-06T18:12:29.148Z,2.63
2017-09-06T18:14:58.671Z,3.03
2017-09-06T18:17:28.174Z,3.17
2017-09-06T18:19:57.695Z,2.80
2017-09-06T18:22:27.187Z,2.33
2017-09-06T18:24:56.695Z,2.40
2017-09-06T18:27:26.180Z,2.33
2017-09-06T18:29:55.776Z,2.30
2017-09-06T18:32:25.301Z,2.60
2017-09-06T18:34:55.046Z,2.87
2017-09-06T18:37:24.496Z,2.67
2017-09-06T18:39:54.001Z,2.40
2017-09-06T18:42:23.473Z,2.70
2017-09-06T18:44:52.954Z,2.80
2017-09-06T18:47:22.401Z,2.47
2017-09-06T18:49:51.860Z,3.20
2017-09-06T18:52:21.324Z,2.60
2017-09-06T18:54:50.768Z,3.00
2017-09-06T18:57:20.235Z,3.23
2017-09-06T18:59:49.723Z,2.70
2017-09-06T19:02:19.188Z,2.77
2017-09-06T19:04:48.648Z,2.80
2017-09-06T19:07:17.993Z,2.83
2017-09-06T19:09:47.487Z,3.10
2017-09-06T19:12:16.944Z,2.57
2017-09-06T19:14:46.391Z,3.40
2017-09-06T19:17:15.952Z,2.80
2017-09-06T19:19:45.436Z,2.90
2017-09-06T19:22:14.889Z,2.87
2017-09-06T19:24:44.452Z,2.87
2017-09-06T19:27:13.907Z,3.17
2017-09-06T19:29:43.379Z,2.90
2017-09-06T19:32:12.831Z,4.03
2017-09-06T19:34:42.331Z,2.77
2017-09-06T19:37:11.788Z,3.00
2017-09-06T19:39:41.277Z,3.50
2017-09-06T19:42:10.754Z,3.43
2017-09-06T19:44:40.303Z,3.03
2017-09-06T19:47:09.781Z,2.70
2017-09-06T19:49:39.272Z,3.13
2017-09-06T19:52:08.740Z,2.90
2017-09-06T19:54:38.279Z,2.67
2017-09-06T19:57:07.752Z,2.90
2017-09-06T19:59:37.254Z,3.10
2017-09-06T20:02:06.714Z,2.97
2017-09-06T20:04:36.202Z,4.30
2017-09-06T20:07:05.659Z,2.80
2017-09-06T20:09:35.143Z,3.60
2017-09-06T20:12:04.628Z,3.27
2017-09-06T20:14:34.095Z,3.13
2017-09-06T20:17:03.577Z,2.77
2017-09-06T20:19:33.052Z,4.27
2017-09-06T20:22:02.578Z,2.93
2017-09-06T20:24:32.055Z,2.80
2017-09-06T20:27:01.500Z,3.30
2017-09-06T20:29:30.986Z,3.07
2017-09-06T20:32:00.438Z,3.20
2017-09-06T20:34:29.910Z,3.30
2017-09-06T20:36:59.383Z,3.87
2017-09-06T20:39:28.902Z,3.03
2017-09-06T20:41:58.363Z,3.90
2017-09-06T20:44:27.928Z,3.30
2017-09-06T20:46:57.387Z,3.10
2017-09-06T20:49:26.839Z,3.10
2017-09-06T20:51:56.498Z,3.20
2017-09-06T20:54:25.962Z,3.20
2017-09-06T20:56:55.423Z,2.97
2017-09-06T20:59:24.885Z,3.30
2017-09-06T21:01:54.357Z,3.07
2017-09-06T21:04:23.848Z,2.87
2017-09-06T21:06:53.357Z,3.27
2017-09-06T21:09:22.931Z,4.13
2017-09-06T21:11:52.430Z,3.23
2017-09-06T21:14:22.055Z,3.83
2017-09-06T21:16:51.563Z,3.17
2017-09-06T21:19:21.037Z,3.47
2017-09-06T21:21:50.508Z,3.50
2017-09-06T21:24:19.994Z,3.53
2017-09-06T21:26:49.502Z,4.50
2017-09-06T21:29:18.964Z,3.03
2017-09-06T21:31:48.503Z,3.90
2017-09-06T21:34:18.086Z,3.50
2017-09-06T21:36:47.538Z,3.70
2017-09-06T21:39:16.991Z,3.37
2017-09-06T21:41:46.486Z,4.27
2017-09-06T21:44:15.942Z,3.60
2017-09-06T21:46:45.555Z,3.90
2017-09-06T21:49:15.035Z,4.83
2017-09-06T21:51:44.648Z,3.40
2017-09-06T21:54:14.121Z,4.03
2017-09-06T21:56:43.586Z,3.53
2017-09-06T21:59:13.050Z,3.83
2017-09-06T22:01:42.546Z,3.87
2017-09-06T22:04:12.017Z,4.40
2017-09-06T22:06:41.496Z,4.13
2017-09-06T22:09:11.190Z,3.80
2017-09-06T22:11:40.647Z,4.40
2017-09-06T22:14:10.158Z,3.83
2017-09-06T22:16:39.635Z,3.50
2017-09-06T22:19:09.083Z,3.60
2017-09-06T22:21:38.542Z,4.53
2017-09-06T22:24:08.011Z,4.40
2017-09-06T22:26:37.475Z,4.70
2017-09-06T22:29:06.926Z,5.57
2017-09-06T22:31:36.407Z,5.60
2017-09-06T22:34:05.852Z,4.87
2017-09-06T22:36:35.321Z,6.00
2017-09-06T22:39:04.451Z,6.10
2017-09-06T22:41:33.930Z,6.00
2017-09-06T22:44:03.437Z,6.40
2017-09-06T22:46:32.928Z,6.90
2017-09-06T22:49:02.407Z,7.23
2017-09-06T22:51:31.877Z,7.23
2017-09-06T22:54:01.346Z,6.17
2017-09-06T22:56:30.947Z,5.33
2017-09-06T22:59:00.394Z,5.10
2017-09-06T23:01:29.853Z,6.70
2017-09-06T23:03:59.326Z,6.13
2017-09-06T23:06:28.787Z,4.90
2017-09-06T23:08:58.317Z,5.50
2017-09-06T23:11:27.803Z,5.37
2017-09-06T23:13:57.271Z,5.50
2017-09-06T23:16:26.719Z,6.00
2017-09-06T23:18:56.193Z,5.60
2017-09-06T23:21:25.656Z,5.40
2017-09-06T23:23:55.138Z,6.10
2017-09-06T23:26:24.737Z,6.87
2017-09-06T23:28:54.220Z,6.17
2017-09-06T23:31:23.687Z,6.23
2017-09-06T23:33:52.950Z,5.93
2017-09-06T23:36:22.419Z,7.50
2017-09-06T23:38:51.995Z,7.83
2017-09-06T23:41:21.459Z,8.33
2017-09-06T23:43:51.101Z,7.70
2017-09-06T23:46:20.587Z,6.50
2017-09-06T23:48:50.162Z,7.37
2017-09-06T23:51:19.611Z,7.13
2017-09-06T23:53:49.083Z,6.83
2017-09-06T23:56:18.543Z,7.70
2017-09-06T23:58:48.006Z,7.13
